Acadia Valley, Canada
Current Conditions -  °F | °C
As of 9:00 AM on Tuesday 21 Oct 2014 (Local Time) from CYKY Reporting Station
Broken Clouds Broken Clouds  
Wind Chill:   Ceiling: 23000
Heat Index:   Visibility: 15mi
Dew Point:   Wind: 5mph
Humidity: 62%   Direction: 190°S
Pressure: 29.6"   Gusts: NA
Location:  51.15°N, 110.2°W
Report Text: CYKY 211500Z 19004KT 15SM FEW040 SCT080 BKN230 09/02 A2960 RMK SC2AC1CI3 SLP031 DENSITY ALT 2400FT
Loading
Personal Weather Stations






























Interactive Weather Map
Tropical Storm Tracking
New forecast layout! Learn more

10-Day Weather Forecast

Advertisements
Track Severe Weather on mobile